createdAt,value
2017-04-12T00:00:20.120Z,16.85
2017-04-12T00:01:20.121Z,18.15
2017-04-12T00:02:20.049Z,21.70
2017-04-12T00:03:19.979Z,16.13
2017-04-12T00:04:19.925Z,15.90
2017-04-12T00:05:19.869Z,19.37
2017-04-12T00:06:19.924Z,17.48
2017-04-12T00:07:19.830Z,22.67
2017-04-12T00:08:19.749Z,23.83
2017-04-12T00:09:19.695Z,15.98
2017-04-12T00:10:19.622Z,19.15
2017-04-12T00:11:19.553Z,16.77
2017-04-12T00:12:19.486Z,16.33
2017-04-12T00:13:19.956Z,17.77
2017-04-12T00:14:20.627Z,15.37
2017-04-12T00:15:20.662Z,18.47
2017-04-12T00:16:20.795Z,15.72
2017-04-12T00:17:21.470Z,15.70
2017-04-12T00:18:21.389Z,21.12
2017-04-12T00:19:21.325Z,15.58
2017-04-12T00:20:21.266Z,17.32
2017-04-12T00:21:21.188Z,15.82
2017-04-12T00:22:21.092Z,19.85
2017-04-12T00:23:21.051Z,16.88
2017-04-12T00:24:20.958Z,15.95
2017-04-12T00:25:20.901Z,17.08
2017-04-12T00:26:20.819Z,17.00
2017-04-12T00:27:20.869Z,18.63
2017-04-12T00:28:21.542Z,19.80
2017-04-12T00:29:21.472Z,23.15
2017-04-12T00:30:21.679Z,21.13
2017-04-12T00:31:21.616Z,19.48
2017-04-12T00:32:21.529Z,17.40
2017-04-12T00:33:21.445Z,19.08
2017-04-12T00:34:21.369Z,19.22
2017-04-12T00:35:21.383Z,25.60
2017-04-12T00:36:21.297Z,22.23
2017-04-12T00:37:21.242Z,21.78
2017-04-12T00:38:21.205Z,21.47
2017-04-12T00:39:21.118Z,23.03
2017-04-12T00:40:21.691Z,25.13
2017-04-12T00:41:21.606Z,25.62
2017-04-12T00:42:21.602Z,22.47
2017-04-12T00:43:21.591Z,22.15
2017-04-12T00:44:21.506Z,25.02
2017-04-12T00:45:21.450Z,24.98
2017-04-12T00:46:21.372Z,23.87
2017-04-12T00:47:21.434Z,27.78
2017-04-12T00:48:21.362Z,23.22
2017-04-12T00:49:21.273Z,28.52
2017-04-12T00:50:21.178Z,27.35
2017-04-12T00:51:21.106Z,23.43
2017-04-12T00:52:21.011Z,23.18
2017-04-12T00:53:21.760Z,27.25
2017-04-12T00:54:22.367Z,23.78
2017-04-12T00:55:23.022Z,25.43
2017-04-12T00:56:22.937Z,26.70
2017-04-12T00:57:22.894Z,27.02
2017-04-12T00:58:22.814Z,27.23
2017-04-12T00:59:22.761Z,25.73
2017-04-12T01:00:22.745Z,27.15
2017-04-12T01:01:22.720Z,25.93
2017-04-12T01:02:23.398Z,23.20
2017-04-12T01:03:23.313Z,27.27
2017-04-12T01:04:23.258Z,23.70
2017-04-12T01:05:23.213Z,30.88
2017-04-12T01:06:23.166Z,28.92
2017-04-12T01:07:23.817Z,26.42
2017-04-12T01:08:23.766Z,28.55
2017-04-12T01:09:23.678Z,24.95
2017-04-12T01:10:23.634Z,24.80
2017-04-12T01:11:23.569Z,27.98
2017-04-12T01:12:23.502Z,26.72
2017-04-12T01:13:24.119Z,27.23
2017-04-12T01:14:24.041Z,30.08
2017-04-12T01:15:24.000Z,27.10
2017-04-12T01:16:24.009Z,23.23
2017-04-12T01:17:23.953Z,25.82
2017-04-12T01:18:24.588Z,27.83
2017-04-12T01:19:24.485Z,30.17
2017-04-12T01:20:25.141Z,30.65
2017-04-12T01:21:25.126Z,24.33
2017-04-12T01:22:25.100Z,28.53
2017-04-12T01:23:25.030Z,25.00
2017-04-12T01:24:24.913Z,27.70
2017-04-12T01:25:24.862Z,28.17
2017-04-12T01:26:24.791Z,24.02
2017-04-12T01:27:24.709Z,25.60
2017-04-12T01:28:24.643Z,28.28
2017-04-12T01:29:25.318Z,23.12
2017-04-12T01:30:25.227Z,27.32
2017-04-12T01:31:25.165Z,22.58
2017-04-12T01:32:25.805Z,29.43
2017-04-12T01:33:25.706Z,23.82
2017-04-12T01:34:25.666Z,22.92
2017-04-12T01:35:25.582Z,26.78
2017-04-12T01:36:26.518Z,24.10
2017-04-12T01:37:26.497Z,24.03
2017-04-12T01:38:26.406Z,25.32
2017-04-12T01:39:26.313Z,27.33
2017-04-12T01:40:26.218Z,24.95
2017-04-12T01:41:26.137Z,25.55
2017-04-12T01:42:26.159Z,26.18
2017-04-12T01:43:26.069Z,25.78
2017-04-12T01:44:26.755Z,26.43
2017-04-12T01:45:26.691Z,27.23
2017-04-12T01:46:26.573Z,25.87
2017-04-12T01:47:26.541Z,26.32
2017-04-12T01:48:26.527Z,27.87
2017-04-12T01:49:30.809Z,24.38
2017-04-12T01:50:31.477Z,24.07
2017-04-12T01:51:31.377Z,26.15
2017-04-12T01:52:31.335Z,26.02
2017-04-12T01:53:31.269Z,26.07
2017-04-12T01:54:31.249Z,28.02
2017-04-12T01:55:31.185Z,25.38
2017-04-12T01:56:31.104Z,28.32
2017-04-12T01:57:31.065Z,27.52
2017-04-12T01:58:30.953Z,26.68
2017-04-12T01:59:30.869Z,25.37
2017-04-12T02:00:30.768Z,25.35
2017-04-12T02:01:31.471Z,27.73
2017-04-12T02:02:31.385Z,28.38
2017-04-12T02:03:31.318Z,25.52
2017-04-12T02:04:32.011Z,30.70
2017-04-12T02:05:32.222Z,28.02
2017-04-12T02:06:32.137Z,24.88
2017-04-12T02:07:32.168Z,26.55
2017-04-12T02:08:32.877Z,29.23
2017-04-12T02:09:32.797Z,26.68
2017-04-12T02:10:33.534Z,25.37
2017-04-12T02:11:34.201Z,26.97
2017-04-12T02:12:34.148Z,27.12
2017-04-12T02:13:34.113Z,28.27
2017-04-12T02:14:34.008Z,25.18
2017-04-12T02:15:33.948Z,26.98
2017-04-12T02:16:33.867Z,23.22
2017-04-12T02:17:34.566Z,27.22
2017-04-12T02:18:34.489Z,29.47
2017-04-12T02:19:34.421Z,29.33
2017-04-12T02:20:34.341Z,28.83
2017-04-12T02:21:34.308Z,27.13
2017-04-12T02:22:34.318Z,27.48
2017-04-12T02:23:34.973Z,25.57
2017-04-12T02:24:34.921Z,27.80
2017-04-12T02:25:34.833Z,27.30
2017-04-12T02:26:34.749Z,22.98
2017-04-12T02:27:34.661Z,25.27
2017-04-12T02:28:34.598Z,28.33
2017-04-12T02:29:34.493Z,26.50
2017-04-12T02:30:34.402Z,26.15
2017-04-12T02:31:34.309Z,27.60
2017-04-12T02:32:34.601Z,25.67
2017-04-12T02:33:33.745Z,26.35
2017-04-12T02:34:34.663Z,28.23
2017-04-12T02:35:34.624Z,33.17
2017-04-12T02:36:35.263Z,23.93
2017-04-12T02:37:35.249Z,26.03
2017-04-12T02:38:35.153Z,23.07
2017-04-12T02:39:35.081Z,26.18
2017-04-12T02:40:35.003Z,26.30
2017-04-12T02:41:34.889Z,23.02
2017-04-12T02:42:34.830Z,22.67
2017-04-12T02:43:34.775Z,27.62
2017-04-12T02:44:34.756Z,26.78
2017-04-12T02:45:34.628Z,24.43
2017-04-12T02:46:34.990Z,24.60
2017-04-12T02:47:35.623Z,24.88
2017-04-12T02:48:35.603Z,26.08
2017-04-12T02:49:35.525Z,26.23
2017-04-12T02:50:36.225Z,26.00
2017-04-12T02:51:36.162Z,25.22
2017-04-12T02:52:36.090Z,22.82
2017-04-12T02:53:36.105Z,26.53
2017-04-12T02:54:36.026Z,25.25
2017-04-12T02:55:35.918Z,24.00
2017-04-12T02:56:35.875Z,28.32
2017-04-12T02:57:35.810Z,25.85
2017-04-12T02:58:35.758Z,26.92
2017-04-12T02:59:35.675Z,23.65
2017-04-12T03:00:35.601Z,25.02
2017-04-12T03:01:35.524Z,24.75
2017-04-12T03:02:35.454Z,29.45
2017-04-12T03:03:35.342Z,27.55
2017-04-12T03:04:35.246Z,28.35
2017-04-12T03:05:35.171Z,24.20
2017-04-12T03:06:35.111Z,23.80
2017-04-12T03:07:35.024Z,26.58
2017-04-12T03:08:35.701Z,27.88
2017-04-12T03:09:35.675Z,27.28
2017-04-12T03:10:35.598Z,24.93
2017-04-12T03:11:35.529Z,26.35
2017-04-12T03:12:35.452Z,29.23
2017-04-12T03:13:35.348Z,27.25
2017-04-12T03:14:35.296Z,23.80
2017-04-12T03:15:35.222Z,25.43
2017-04-12T03:16:35.203Z,26.37
2017-04-12T03:17:35.932Z,27.78
2017-04-12T03:18:35.815Z,23.12
2017-04-12T03:19:35.764Z,24.40
2017-04-12T03:20:35.653Z,27.35
2017-04-12T03:21:35.561Z,27.18
2017-04-12T03:22:35.486Z,34.37
2017-04-12T03:23:35.401Z,29.23
2017-04-12T03:24:35.373Z,26.67
2017-04-12T03:25:35.321Z,26.40
2017-04-12T03:26:35.536Z,26.83
2017-04-12T03:27:35.322Z,29.67
2017-04-12T03:28:35.224Z,26.15
2017-04-12T03:29:35.112Z,30.20
2017-04-12T03:30:35.037Z,25.85
2017-04-12T03:31:34.969Z,29.15
2017-04-12T03:32:34.876Z,26.85
2017-04-12T03:33:34.790Z,28.65
2017-04-12T03:34:35.550Z,30.70
2017-04-12T03:35:35.509Z,35.35
2017-04-12T03:36:35.455Z,30.23
2017-04-12T03:37:35.391Z,29.87
2017-04-12T03:38:35.310Z,27.63
2017-04-12T03:39:35.203Z,29.57
2017-04-12T03:40:35.117Z,24.68
2017-04-12T03:41:35.345Z,36.13
2017-04-12T03:42:35.153Z,31.90
2017-04-12T03:43:35.864Z,32.48
2017-04-12T03:44:35.794Z,29.98
2017-04-12T03:45:35.766Z,31.32
2017-04-12T03:46:35.669Z,27.12
2017-04-12T03:47:35.716Z,30.12
2017-04-12T03:48:36.374Z,27.60
2017-04-12T03:49:36.269Z,28.22
2017-04-12T03:50:36.218Z,30.03
2017-04-12T03:51:36.127Z,28.02
2017-04-12T03:52:36.040Z,32.18
2017-04-12T03:53:36.706Z,29.42
2017-04-12T03:54:37.453Z,28.12
2017-04-12T03:55:37.426Z,27.30
2017-04-12T03:56:37.329Z,29.40
2017-04-12T03:57:37.256Z,32.13
2017-04-12T03:58:37.161Z,32.13
2017-04-12T03:59:37.114Z,29.12
2017-04-12T04:00:37.826Z,28.97
2017-04-12T04:01:37.740Z,30.37
2017-04-12T04:02:38.406Z,31.65
2017-04-12T04:03:38.362Z,34.60
2017-04-12T04:04:39.051Z,27.67
2017-04-12T04:05:38.997Z,37.53
2017-04-12T04:06:38.950Z,32.23
2017-04-12T04:07:38.856Z,28.15
2017-04-12T04:08:38.769Z,25.58
2017-04-12T04:09:38.685Z,31.43
2017-04-12T04:10:38.625Z,29.13
2017-04-12T04:11:39.285Z,31.88
2017-04-12T04:12:39.177Z,30.45
2017-04-12T04:13:39.115Z,32.33
2017-04-12T04:14:39.089Z,26.37
2017-04-12T04:15:38.989Z,28.18
2017-04-12T04:16:38.930Z,30.03
2017-04-12T04:17:38.847Z,33.85
2017-04-12T04:18:38.749Z,31.33
2017-04-12T04:19:38.649Z,29.32
2017-04-12T04:20:38.552Z,30.08
2017-04-12T04:21:38.606Z,29.50
2017-04-12T04:22:39.261Z,31.37
2017-04-12T04:23:39.165Z,36.05
2017-04-12T04:24:39.108Z,32.23
2017-04-12T04:25:39.027Z,29.67
2017-04-12T04:26:39.721Z,29.00
2017-04-12T04:27:39.654Z,32.03
2017-04-12T04:28:40.289Z,31.55
2017-04-12T04:29:40.181Z,28.23
2017-04-12T04:31:01.918Z,25.70
2017-04-12T04:32:10.756Z,31.33
2017-04-12T04:33:10.684Z,29.85
2017-04-12T04:34:10.581Z,31.15
2017-04-12T04:35:10.460Z,27.27
2017-04-12T04:36:10.354Z,31.63
2017-04-12T04:37:10.286Z,32.17
2017-04-12T04:38:10.972Z,28.15
2017-04-12T04:39:10.912Z,30.37
2017-04-12T04:40:10.790Z,27.38
2017-04-12T04:41:10.783Z,28.07
2017-04-12T04:42:11.438Z,30.12
2017-04-12T04:43:11.313Z,28.78
2017-04-12T04:44:11.192Z,29.20
2017-04-12T04:45:11.056Z,29.58
2017-04-12T04:46:10.957Z,24.12
2017-04-12T04:47:10.893Z,26.62
2017-04-12T04:48:10.785Z,26.25
2017-04-12T04:49:10.675Z,29.28
2017-04-12T04:50:10.627Z,30.83
2017-04-12T04:51:11.248Z,28.20
2017-04-12T04:52:11.901Z,31.60
2017-04-12T04:53:11.797Z,33.23
2017-04-12T04:54:11.791Z,28.02
2017-04-12T04:55:12.414Z,27.33
2017-04-12T04:56:13.049Z,29.43
2017-04-12T04:57:12.990Z,27.03
2017-04-12T04:58:12.944Z,28.47
2017-04-12T04:59:13.569Z,27.67
2017-04-12T05:00:13.505Z,24.58
2017-04-12T05:01:13.396Z,29.23
2017-04-12T05:02:13.379Z,32.05
2017-04-12T05:03:14.029Z,31.55
2017-04-12T05:04:13.917Z,27.37
2017-04-12T05:05:13.845Z,23.70
2017-04-12T05:06:14.629Z,26.85
2017-04-12T05:07:15.330Z,33.03
2017-04-12T05:08:15.233Z,28.42
2017-04-12T05:09:15.149Z,28.33
2017-04-12T05:10:15.046Z,25.63
2017-04-12T05:11:15.795Z,28.95
2017-04-12T05:12:15.680Z,27.53
2017-04-12T05:13:16.333Z,26.58
2017-04-12T05:14:16.223Z,24.52
2017-04-12T05:15:16.105Z,30.93
2017-04-12T05:16:16.009Z,32.93
2017-04-12T05:17:15.936Z,25.93
2017-04-12T05:18:16.212Z,28.07
2017-04-12T05:19:16.095Z,29.35
2017-04-12T05:20:16.009Z,29.75
2017-04-12T05:21:15.881Z,26.80
2017-04-12T05:22:15.774Z,25.87
2017-04-12T05:23:15.771Z,24.95
2017-04-12T05:24:15.780Z,27.55
2017-04-12T05:25:16.441Z,30.95
2017-04-12T05:26:16.341Z,30.42
2017-04-12T05:27:16.229Z,26.90
2017-04-12T05:28:16.133Z,28.78
2017-04-12T05:29:16.038Z,30.08
2017-04-12T05:30:15.921Z,34.53
2017-04-12T05:31:16.176Z,28.48
2017-04-12T05:32:16.066Z,27.53
2017-04-12T05:33:16.147Z,28.28
2017-04-12T05:34:16.801Z,25.17
2017-04-12T05:35:17.433Z,26.48
2017-04-12T05:36:17.409Z,33.17
2017-04-12T05:37:17.349Z,29.78
2017-04-12T05:38:17.274Z,30.28
2017-04-12T05:39:17.180Z,26.38
2017-04-12T05:40:17.074Z,27.67
2017-04-12T05:41:16.991Z,32.90
2017-04-12T05:42:16.913Z,30.32
2017-04-12T05:43:17.599Z,29.07
2017-04-12T05:44:17.519Z,29.43
2017-04-12T05:45:17.406Z,28.33
2017-04-12T05:46:17.297Z,30.75
2017-04-12T05:47:17.193Z,25.65
2017-04-12T05:48:17.152Z,25.50
2017-04-12T05:49:17.854Z,32.30
2017-04-12T05:50:17.738Z,31.15
2017-04-12T05:51:17.776Z,33.52
2017-04-12T05:52:18.069Z,27.78
2017-04-12T05:53:18.001Z,29.60
2017-04-12T05:54:18.067Z,28.17
2017-04-12T05:55:18.724Z,28.65
2017-04-12T05:56:18.692Z,29.07
2017-04-12T05:57:18.573Z,29.18
2017-04-12T05:58:18.549Z,32.97
2017-04-12T05:59:19.182Z,26.55
2017-04-12T06:00:19.637Z,28.17
2017-04-12T06:01:19.526Z,26.98
2017-04-12T06:02:19.429Z,23.40
2017-04-12T06:03:19.369Z,25.17
2017-04-12T06:04:19.292Z,28.87
2017-04-12T06:05:19.209Z,26.02
2017-04-12T06:06:19.861Z,27.25
2017-04-12T06:07:19.854Z,25.75
2017-04-12T06:08:20.509Z,27.77
2017-04-12T06:09:20.388Z,29.83
2017-04-12T06:10:20.289Z,27.22
2017-04-12T06:11:20.188Z,28.83
2017-04-12T06:12:20.073Z,27.17
2017-04-12T06:13:20.758Z,27.40
2017-04-12T06:14:20.765Z,30.03
2017-04-12T06:15:20.728Z,28.32
2017-04-12T06:16:21.961Z,29.43
2017-04-12T06:17:21.922Z,31.58
2017-04-12T06:18:21.850Z,26.82
2017-04-12T06:19:21.742Z,30.15
2017-04-12T06:20:21.689Z,28.95
2017-04-12T06:21:22.329Z,27.18
2017-04-12T06:22:22.244Z,34.32
2017-04-12T06:23:22.213Z,29.45
2017-04-12T06:24:22.841Z,24.57
2017-04-12T06:25:22.749Z,24.88
2017-04-12T06:26:22.648Z,25.17
2017-04-12T06:27:22.549Z,31.12
2017-04-12T06:28:22.489Z,24.85
2017-04-12T06:29:22.369Z,28.27
2017-04-12T06:30:22.285Z,29.77
2017-04-12T06:31:22.826Z,26.93
2017-04-12T06:32:22.729Z,24.23
2017-04-12T06:33:22.650Z,23.15
2017-04-12T06:34:22.582Z,27.30
2017-04-12T06:35:23.262Z,22.67
2017-04-12T06:36:23.222Z,26.05
2017-04-12T06:37:23.277Z,26.37
2017-04-12T06:38:23.203Z,18.60
2017-04-12T06:39:23.178Z,23.82
2017-04-12T06:40:23.116Z,27.42
2017-04-12T06:41:23.045Z,27.18
2017-04-12T06:42:23.680Z,22.80
2017-04-12T06:43:23.647Z,26.83
2017-04-12T06:44:23.533Z,23.10
2017-04-12T06:45:23.437Z,23.47
2017-04-12T06:46:23.390Z,28.75
2017-04-12T06:47:23.349Z,25.00
2017-04-12T06:48:23.273Z,21.33
2017-04-12T06:49:23.176Z,27.40
2017-04-12T06:50:23.078Z,29.02
2017-04-12T06:51:23.014Z,25.18
2017-04-12T06:52:22.909Z,24.72
2017-04-12T06:53:23.528Z,25.80
2017-04-12T06:54:24.265Z,27.82
2017-04-12T06:55:24.196Z,23.70
2017-04-12T06:56:24.125Z,27.28
2017-04-12T06:57:24.067Z,21.32
2017-04-12T06:58:24.749Z,22.80
2017-04-12T06:59:24.732Z,28.52
2017-04-12T07:00:24.656Z,29.25
2017-04-12T07:01:24.564Z,23.87
2017-04-12T07:02:24.571Z,22.47
2017-04-12T07:03:24.522Z,21.93
2017-04-12T07:04:24.824Z,22.88
2017-04-12T07:05:24.742Z,24.93
2017-04-12T07:06:24.663Z,19.43
2017-04-12T07:07:24.576Z,24.67
2017-04-12T07:08:24.497Z,21.60
2017-04-12T07:09:24.429Z,23.73
2017-04-12T07:10:24.374Z,26.07
2017-04-12T07:11:24.398Z,23.82
2017-04-12T07:12:24.320Z,26.60
2017-04-12T07:13:24.236Z,21.57
2017-04-12T07:14:24.195Z,18.73
2017-04-12T07:15:24.233Z,22.40
2017-04-12T07:16:24.503Z,19.30
2017-04-12T07:17:25.192Z,19.35
2017-04-12T07:18:25.143Z,20.65
2017-04-12T07:19:25.097Z,21.22
2017-04-12T07:20:25.057Z,27.97
2017-04-12T07:21:25.533Z,22.95
2017-04-12T07:22:25.446Z,24.65
2017-04-12T07:23:25.342Z,23.13
2017-04-12T07:24:25.289Z,24.02
2017-04-12T07:25:25.291Z,25.82
2017-04-12T07:26:25.222Z,23.08
2017-04-12T07:27:25.545Z,25.42
2017-04-12T07:28:25.463Z,23.07
2017-04-12T07:29:25.377Z,21.23
2017-04-12T07:30:25.425Z,19.73
2017-04-12T07:31:26.050Z,20.78
2017-04-12T07:32:25.957Z,23.17
2017-04-12T07:33:25.848Z,21.38
2017-04-12T07:34:25.759Z,19.05
2017-04-12T07:35:25.760Z,23.23
2017-04-12T07:36:25.728Z,24.00
2017-04-12T07:37:25.646Z,22.27
2017-04-12T07:38:25.549Z,21.60
2017-04-12T07:39:25.488Z,21.98
2017-04-12T07:40:25.446Z,20.65
2017-04-12T07:41:25.373Z,15.67
2017-04-12T07:42:25.258Z,24.92
2017-04-12T07:43:25.176Z,19.78
2017-04-12T07:44:25.198Z,21.50
2017-04-12T07:45:25.922Z,18.03
2017-04-12T07:46:26.605Z,20.30
2017-04-12T07:47:26.664Z,25.20
2017-04-12T07:48:27.293Z,22.30
2017-04-12T07:49:27.181Z,19.48
2017-04-12T07:50:26.340Z,22.80
2017-04-12T07:51:26.229Z,25.65
2017-04-12T07:52:26.188Z,20.60
2017-04-12T07:53:26.086Z,24.42
2017-04-12T07:54:26.001Z,21.65
2017-04-12T07:55:25.961Z,25.03
2017-04-12T07:56:26.169Z,19.03
2017-04-12T07:57:26.046Z,25.58
2017-04-12T07:58:25.993Z,22.63
2017-04-12T07:59:25.897Z,22.28
2017-04-12T08:00:25.933Z,21.82
2017-04-12T08:01:25.841Z,22.37
2017-04-12T08:02:25.769Z,21.02
2017-04-12T08:03:25.738Z,20.95
2017-04-12T08:04:26.385Z,19.65
2017-04-12T08:05:26.387Z,20.28
2017-04-12T08:06:26.260Z,18.38
2017-04-12T08:07:26.188Z,19.53
2017-04-12T08:08:26.806Z,23.10
2017-04-12T08:09:26.726Z,22.85
2017-04-12T08:10:26.818Z,26.00
2017-04-12T08:11:26.722Z,21.30
2017-04-12T08:12:26.701Z,20.33
2017-04-12T08:13:26.619Z,14.92
2017-04-12T08:14:26.509Z,16.25
2017-04-12T08:15:26.462Z,19.12
2017-04-12T08:16:26.456Z,18.25
2017-04-12T08:17:27.097Z,19.13
2017-04-12T08:18:27.010Z,24.83
2017-04-12T08:19:26.943Z,18.30
2017-04-12T08:20:26.913Z,18.45
2017-04-12T08:21:26.809Z,25.35
2017-04-12T08:22:26.713Z,17.92
2017-04-12T08:23:26.686Z,17.70
2017-04-12T08:24:27.310Z,17.88
2017-04-12T08:25:27.253Z,20.42
2017-04-12T08:26:27.182Z,21.67
2017-04-12T08:27:27.108Z,18.87
2017-04-12T08:28:26.998Z,28.78
2017-04-12T08:29:26.905Z,19.38
2017-04-12T08:30:26.910Z,19.60
2017-04-12T08:31:26.892Z,15.88
2017-04-12T08:32:26.801Z,21.08
2017-04-12T08:33:26.701Z,18.87
2017-04-12T08:34:26.776Z,18.73
2017-04-12T08:35:27.414Z,18.17
2017-04-12T08:36:27.337Z,19.58
2017-04-12T08:37:27.239Z,22.18
2017-04-12T08:38:27.168Z,21.58
2017-04-12T08:39:27.077Z,20.15
2017-04-12T08:40:26.977Z,16.40
2017-04-12T08:41:26.910Z,17.75
2017-04-12T08:42:26.846Z,18.63
2017-04-12T08:43:26.740Z,19.07
2017-04-12T08:44:26.712Z,19.88
2017-04-12T08:45:26.645Z,18.98
2017-04-12T08:46:27.367Z,18.80
2017-04-12T08:47:28.024Z,18.90
2017-04-12T08:48:27.952Z,17.07
2017-04-12T08:49:27.882Z,19.23
2017-04-12T08:50:28.557Z,20.95
2017-04-12T08:51:28.486Z,19.73
2017-04-12T08:52:28.403Z,16.97
2017-04-12T08:53:28.293Z,25.47
2017-04-12T08:54:28.229Z,15.97
2017-04-12T08:55:28.181Z,17.13
2017-04-12T08:56:28.133Z,14.55
2017-04-12T08:57:28.789Z,18.22
2017-04-12T08:58:28.708Z,15.00
2017-04-12T08:59:28.680Z,16.60
2017-04-12T09:00:29.328Z,20.03
2017-04-12T09:01:29.408Z,13.82
2017-04-12T09:02:29.345Z,18.70
2017-04-12T09:03:29.513Z,15.33
2017-04-12T09:04:30.165Z,18.93
2017-04-12T09:05:30.087Z,20.02
2017-04-12T09:06:30.021Z,20.65
2017-04-12T09:07:29.921Z,14.72
2017-04-12T09:08:29.987Z,14.40
2017-04-12T09:09:29.912Z,15.70
2017-04-12T09:10:29.833Z,16.20
2017-04-12T09:11:29.853Z,14.23
2017-04-12T09:12:29.770Z,17.10
2017-04-12T09:13:30.887Z,17.88
2017-04-12T09:14:30.897Z,16.90
2017-04-12T09:15:30.825Z,23.08
2017-04-12T09:16:30.788Z,15.68
2017-04-12T09:17:30.745Z,13.92
2017-04-12T09:18:30.672Z,17.13
2017-04-12T09:19:30.595Z,17.80
2017-04-12T09:20:30.509Z,15.23
2017-04-12T09:21:30.469Z,15.68
2017-04-12T09:22:31.196Z,19.10
2017-04-12T09:23:31.129Z,16.70
2017-04-12T09:24:31.029Z,16.80
2017-04-12T09:25:30.936Z,12.52
2017-04-12T09:26:30.855Z,17.22
2017-04-12T09:27:30.773Z,18.08
2017-04-12T09:28:30.717Z,15.47
2017-04-12T09:29:30.637Z,13.78
2017-04-12T09:30:30.549Z,13.20
2017-04-12T09:31:30.478Z,16.98
2017-04-12T09:32:30.368Z,14.30
2017-04-12T09:33:30.351Z,14.05
2017-04-12T09:34:30.254Z,14.25
2017-04-12T09:35:30.218Z,13.15
2017-04-12T09:36:30.921Z,16.20
2017-04-12T09:37:30.840Z,16.67
2017-04-12T09:38:31.161Z,7.38
2017-04-12T09:39:37.637Z,13.55
2017-04-12T09:40:37.617Z,15.00
2017-04-12T09:41:37.549Z,16.83
2017-04-12T09:42:37.774Z,14.98
2017-04-12T09:43:38.682Z,16.45
2017-04-12T09:44:39.330Z,14.90
2017-04-12T09:45:39.241Z,15.10
2017-04-12T09:46:39.253Z,12.63
2017-04-12T09:47:39.982Z,16.62
2017-04-12T09:48:39.964Z,15.43
2017-04-12T09:49:39.881Z,17.87
2017-04-12T09:50:39.826Z,17.55
2017-04-12T09:51:39.778Z,14.07
2017-04-12T09:52:39.725Z,16.38
2017-04-12T09:53:39.705Z,16.23
2017-04-12T09:54:39.676Z,19.40
2017-04-12T09:55:40.348Z,17.03
2017-04-12T09:56:40.301Z,14.87
2017-04-12T09:57:40.278Z,15.58
2017-04-12T09:58:40.183Z,17.35
2017-04-12T09:59:40.144Z,14.77
2017-04-12T10:00:40.073Z,15.53
2017-04-12T10:01:40.064Z,13.07
2017-04-12T10:02:40.005Z,11.88
2017-04-12T10:03:39.922Z,15.63
2017-04-12T10:04:39.868Z,13.60
2017-04-12T10:05:39.817Z,15.67
2017-04-12T10:06:39.745Z,15.12
2017-04-12T10:07:39.652Z,14.22
2017-04-12T10:08:39.592Z,12.92
2017-04-12T10:09:39.538Z,16.18
2017-04-12T10:10:39.452Z,13.70
2017-04-12T10:11:39.371Z,15.40
2017-04-12T10:12:39.561Z,15.15
2017-04-12T10:13:39.361Z,13.97
2017-04-12T10:14:39.256Z,12.67
2017-04-12T10:15:39.234Z,12.35
2017-04-12T10:16:39.192Z,12.58
2017-04-12T10:17:39.141Z,14.98
2017-04-12T10:18:39.126Z,13.88
2017-04-12T10:19:39.849Z,14.75
2017-04-12T10:20:39.765Z,14.73
2017-04-12T10:21:39.680Z,13.90
2017-04-12T10:22:39.589Z,13.45
2017-04-12T10:23:39.491Z,17.22
2017-04-12T10:24:39.401Z,18.47
2017-04-12T10:25:39.341Z,13.08
2017-04-12T10:26:39.265Z,18.20
2017-04-12T10:27:39.199Z,16.28
2017-04-12T10:28:39.106Z,14.72
2017-04-12T10:29:39.006Z,14.48
2017-04-12T10:30:38.930Z,12.38
2017-04-12T10:31:38.834Z,20.38
2017-04-12T10:32:38.770Z,13.17
2017-04-12T10:33:38.717Z,13.95
2017-04-12T10:34:38.692Z,19.37
2017-04-12T10:35:38.936Z,12.85
2017-04-12T10:36:38.734Z,14.10
2017-04-12T10:37:39.416Z,15.60
2017-04-12T10:38:39.309Z,15.12
2017-04-12T10:39:39.425Z,17.23
2017-04-12T10:40:39.356Z,13.22
2017-04-12T10:41:39.270Z,11.72
2017-04-12T10:42:39.224Z,14.05
2017-04-12T10:43:39.145Z,15.18
2017-04-12T10:44:39.071Z,16.90
2017-04-12T10:45:38.985Z,14.48
2017-04-12T10:46:38.889Z,15.78
2017-04-12T10:47:39.072Z,14.72
2017-04-12T10:48:38.990Z,16.40
2017-04-12T10:49:38.905Z,11.43
2017-04-12T10:50:39.156Z,13.57
2017-04-12T10:51:39.101Z,20.03
2017-04-12T10:52:39.005Z,15.33
2017-04-12T10:53:38.976Z,16.52
2017-04-12T10:54:38.929Z,15.78
2017-04-12T10:55:38.858Z,18.18
2017-04-12T10:56:39.548Z,14.62
2017-04-12T10:57:39.513Z,15.35
2017-04-12T10:58:39.764Z,17.72
2017-04-12T10:59:39.693Z,15.95
2017-04-12T11:00:40.455Z,16.73
2017-04-12T11:01:40.393Z,14.58
2017-04-12T11:02:40.300Z,14.70
2017-04-12T11:03:40.218Z,14.52
2017-04-12T11:04:40.116Z,15.88
2017-04-12T11:05:40.106Z,15.33
2017-04-12T11:06:40.053Z,17.62
2017-04-12T11:07:40.704Z,15.28
2017-04-12T11:08:40.607Z,18.15
2017-04-12T11:09:40.508Z,17.67
2017-04-12T11:10:40.615Z,15.77
2017-04-12T11:11:41.289Z,15.63
2017-04-12T11:12:41.192Z,16.57
2017-04-12T11:13:41.061Z,16.20
2017-04-12T11:14:40.987Z,15.63
2017-04-12T11:15:41.060Z,17.13
2017-04-12T11:16:41.709Z,17.72
2017-04-12T11:17:41.741Z,15.72
2017-04-12T11:18:41.696Z,14.62
2017-04-12T11:19:41.601Z,16.95
2017-04-12T11:20:41.556Z,17.40
2017-04-12T11:21:41.526Z,17.93
2017-04-12T11:22:41.519Z,19.13
2017-04-12T11:23:41.624Z,16.65
2017-04-12T11:24:41.685Z,16.75
2017-04-12T11:25:41.654Z,19.18
2017-04-12T11:26:41.617Z,17.75
2017-04-12T11:27:41.555Z,18.82
2017-04-12T11:28:41.499Z,17.67
2017-04-12T11:29:41.393Z,13.77
2017-04-12T11:30:41.340Z,17.73
2017-04-12T11:31:41.989Z,17.52
2017-04-12T11:32:41.868Z,22.72
2017-04-12T11:33:42.617Z,18.88
2017-04-12T11:34:43.251Z,15.75
2017-04-12T11:35:43.196Z,19.17
2017-04-12T11:36:43.096Z,14.73
2017-04-12T11:37:42.990Z,17.20
2017-04-12T11:38:42.920Z,16.47
2017-04-12T11:39:42.881Z,18.87
2017-04-12T11:40:42.822Z,13.55
2017-04-12T11:41:43.853Z,19.23
2017-04-12T11:42:43.742Z,15.27
2017-04-12T11:43:43.648Z,20.85
2017-04-12T11:44:43.591Z,19.28
2017-04-12T11:45:44.277Z,16.52
2017-04-12T11:46:44.214Z,20.52
2017-04-12T11:47:44.858Z,17.05
2017-04-12T11:48:44.763Z,15.85
2017-04-12T11:49:44.721Z,19.82
2017-04-12T11:50:44.672Z,14.70
2017-04-12T11:51:44.670Z,18.57
2017-04-12T11:52:44.669Z,17.48
2017-04-12T11:53:45.354Z,20.43
2017-04-12T11:54:45.235Z,20.95
2017-04-12T11:55:45.126Z,19.83
2017-04-12T11:56:45.082Z,20.13
2017-04-12T11:57:44.973Z,21.30
2017-04-12T11:58:44.932Z,19.20
2017-04-12T11:59:44.854Z,22.92
2017-04-12T12:00:44.887Z,16.52
2017-04-12T12:01:44.821Z,19.67
2017-04-12T12:02:45.570Z,19.75
2017-04-12T12:03:45.461Z,15.62
2017-04-12T12:04:45.445Z,18.05
2017-04-12T12:05:45.386Z,19.98
2017-04-12T12:06:45.285Z,23.93
2017-04-12T12:07:45.292Z,22.05
2017-04-12T12:08:45.156Z,18.15
2017-04-12T12:09:45.132Z,20.93
2017-04-12T12:10:45.013Z,17.58
2017-04-12T12:11:44.961Z,18.47
2017-04-12T12:12:44.888Z,20.75
2017-04-12T12:13:44.797Z,18.02
2017-04-12T12:14:45.593Z,18.28
2017-04-12T12:15:45.572Z,19.47
2017-04-12T12:16:45.566Z,18.37
2017-04-12T12:17:45.509Z,20.05
2017-04-12T12:18:45.413Z,18.33
2017-04-12T12:19:45.304Z,17.25
2017-04-12T12:20:45.277Z,19.37
2017-04-12T12:21:45.172Z,18.48
2017-04-12T12:22:45.079Z,19.97
2017-04-12T12:23:44.970Z,17.43
2017-04-12T12:24:44.874Z,16.55
2017-04-12T12:25:44.829Z,18.57
2017-04-12T12:26:44.743Z,18.10
2017-04-12T12:27:44.677Z,18.22
2017-04-12T12:28:44.592Z,19.10
2017-04-12T12:29:45.225Z,19.83
2017-04-12T12:30:45.130Z,19.40
2017-04-12T12:31:45.796Z,20.10
2017-04-12T12:32:45.872Z,22.18
2017-04-12T12:33:46.512Z,19.03
2017-04-12T12:34:46.430Z,19.20
2017-04-12T12:35:46.384Z,19.28
2017-04-12T12:36:47.048Z,18.63
2017-04-12T12:37:47.028Z,23.40
2017-04-12T12:38:46.983Z,19.88
2017-04-12T12:39:46.928Z,21.15
2017-04-12T12:40:46.842Z,19.98
2017-04-12T12:41:46.751Z,21.70
2017-04-12T12:42:46.686Z,23.58
2017-04-12T12:43:46.642Z,18.95
2017-04-12T12:44:47.352Z,20.57
2017-04-12T12:45:47.273Z,21.78
2017-04-12T12:46:47.921Z,21.72
2017-04-12T12:47:47.957Z,22.58
2017-04-12T12:48:47.941Z,17.93
2017-04-12T12:49:47.840Z,26.32
2017-04-12T12:50:47.789Z,22.08
2017-04-12T12:51:47.693Z,23.53
2017-04-12T12:52:47.585Z,21.33
2017-04-12T12:53:47.521Z,21.73